Neudorf, Canada
Current Conditions -  °F | °C
As of 10:00 AM on Wednesday 22 Oct 2014 (Local Time) from CYQV Reporting Station
Clear Clear  
Wind Chill: 55°   Ceiling: Unl
Heat Index: 55°   Visibility: 9mi
Dew Point: 46°   Wind: 7mph
Humidity: 72%   Direction: 300°WNW
Pressure: 29.62"   Gusts: NA
Location:  50.72°N, 103°W
Report Text: CYQV 221600Z AUTO 30006KT 9SM CLR 13/08 A2962 RMK PRESRR SLP040 DENSITY ALT 2100FT
Loading
Personal Weather Stations






























Interactive Weather Map
Tropical Storm Tracking
New forecast layout! Learn more

10-Day Weather Forecast

Advertisements
Track Severe Weather on mobile